McClusky, North Dakota
Current Conditions -  °F | °C
As of 8:55 AM on Tuesday 21 Oct 2014 (Local Time) from K5H4 Reporting Station
Clear Clear  
Wind Chill: 50°   Ceiling: Unl
Heat Index: 50°   Visibility: 10mi
Dew Point: 39°   Wind: 10mph
Humidity: 66%   Direction: 140°SE
Pressure: 29.85"   Gusts: NA
Location:  47.49°N, 100.44°W
Report Text: K5H4 211355Z AUTO 14009KT 10SM CLR 10/04 A2985 RMK AO2
Loading
Personal Weather Stations






























Interactive Weather Map
Tropical Storm Tracking
New forecast layout! Learn more

10-Day Weather Forecast

Advertisements
Track Severe Weather on mobile